Time;durP1;ratioP1;P1;durP2;ratioP2;P2;SDS_P1;SDS_P2;PMS_P1;PMS_P2;Temp;Humidity;BMP_temperature;BMP_pressure;BME280_temperature;BME280_humidity;BME280_pressure;Samples;Min_cycle;Max_cycle;Signal;HPM_P1;HPM_P2
2022/12/17 13:07:37;;;;;;;37.50;16.95;;;0.90;99.90;;;;;;5123764;28;20046;-62
2022/12/17 13:10:28;;;;;;;33.38;14.98;;;0.90;99.90;;;;;;5108723;28;20045;-63
2022/12/17 13:13:21;;;;;;;35.20;16.48;;;0.80;99.90;;;;;;5094434;28;20061;-63
2022/12/17 13:16:04;;;;;;;30.58;15.50;;;0.80;99.90;;;;;;5097292;28;20053;-63
2022/12/17 13:18:43;;;;;;;30.55;14.88;;;0.80;99.90;;;;;;5133046;28;20412;-63
2022/12/17 13:21:18;;;;;;;38.05;15.45;;;0.80;99.90;;;;;;5131715;28;20586;-62
2022/12/17 13:24:00;;;;;;;33.58;17.70;;;0.80;99.90;;;;;;5118081;28;20053;-64
2022/12/17 13:26:40;;;;;;;35.47;18.08;;;0.80;99.90;;;;;;5087154;28;20186;-64
2022/12/17 13:29:31;;;;;;;39.17;18.77;;;0.70;99.90;;;;;;5128156;28;20039;-63
2022/12/17 13:32:15;;;;;;;36.30;16.20;;;0.70;99.90;;;;;;5095014;28;20045;-62
2022/12/17 13:35:32;;;;;;;34.10;17.20;;;0.70;99.90;;;;;;5109541;28;20047;-63
2022/12/17 13:38:21;;;;;;;33.47;16.23;;;0.70;99.90;;;;;;5128311;28;20438;-63
2022/12/17 13:41:10;;;;;;;33.28;15.00;;;0.70;99.90;;;;;;5125065;28;20038;-62
2022/12/17 13:44:05;;;;;;;34.10;16.50;;;0.60;99.90;;;;;;5096436;28;20529;-63
2022/12/17 13:46:45;;;;;;;35.83;16.35;;;0.60;99.90;;;;;;5112579;28;20725;-63
2022/12/17 13:49:27;;;;;;;26.98;15.13;;;0.60;99.90;;;;;;5092189;28;20515;-63
2022/12/17 13:52:16;;;;;;;30.25;16.90;;;0.60;99.90;;;;;;5112076;28;20033;-61
2022/12/17 13:54:48;;;;;;;35.05;15.82;;;0.70;99.90;;;;;;5075467;29;20043;-62
2022/12/17 13:57:28;;;;;;;35.80;16.88;;;0.60;99.90;;;;;;5100515;28;20413;-63
2022/12/17 14:00:01;;;;;;;32.92;18.27;;;0.60;99.90;;;;;;5095077;28;20059;-63
2022/12/17 14:02:41;;;;;;;36.80;17.25;;;0.60;99.90;;;;;;5086298;28;20645;-63
2022/12/17 14:05:32;;;;;;;37.13;15.70;;;0.60;99.90;;;;;;5119692;28;20102;-62
2022/12/17 14:08:06;;;;;;;33.35;15.95;;;0.60;99.90;;;;;;5090063;28;20404;-63
2022/12/17 14:12:20;;;;;;;29.25;15.00;;;0.60;99.90;;;;;;5100961;28;20046;-62
2022/12/17 14:13:49;;;;;;;30.05;13.43;;;0.70;99.90;;;;;;5112722;28;20044;-62
2022/12/17 14:16:21;;;;;;;33.70;16.35;;;0.60;99.90;;;;;;5095207;28;20061;-63
2022/12/17 14:18:59;;;;;;;37.85;18.27;;;0.70;99.90;;;;;;5111797;28;20039;-62
2022/12/17 14:21:40;;;;;;;36.58;17.90;;;0.60;99.90;;;;;;5097048;28;20066;-63
2022/12/17 14:24:16;;;;;;;41.53;17.92;;;0.60;99.90;;;;;;5111617;28;20046;-61
2022/12/17 14:26:54;;;;;;;28.48;14.25;;;0.60;99.90;;;;;;5094524;28;20351;-61
2022/12/17 14:29:48;;;;;;;30.13;13.93;;;0.60;99.90;;;;;;5118817;28;20279;-61
2022/12/17 14:32:33;;;;;;;26.90;13.07;;;0.60;99.90;;;;;;5132590;28;20057;-62
2022/12/17 14:35:05;;;;;;;32.30;14.20;;;0.60;99.90;;;;;;5100279;29;20047;-62
2022/12/17 14:37:39;;;;;;;25.88;14.23;;;0.60;99.90;;;;;;5125565;28;20185;-63
2022/12/17 14:40:13;;;;;;;;;;;0.60;99.90;;;;;;5094787;28;20533;-63
2022/12/17 14:42:45;;;;;;;27.90;13.43;;;0.60;99.90;;;;;;5087801;28;20438;-62
2022/12/17 14:45:21;;;;;;;31.30;15.02;;;0.60;99.90;;;;;;5127620;28;20574;-63
2022/12/17 14:48:09;;;;;;;31.40;14.93;;;0.50;99.90;;;;;;5111507;28;20043;-64
2022/12/17 14:50:55;;;;;;;36.95;16.48;;;0.60;99.90;;;;;;5094249;28;20369;-62
2022/12/17 14:53:31;;;;;;;32.90;16.58;;;0.50;99.90;;;;;;5142852;28;20034;-61
2022/12/17 14:56:03;;;;;;;38.40;15.20;;;0.50;99.90;;;;;;5141810;28;20045;-62
2022/12/17 14:58:47;;;;;;;31.77;14.63;;;0.50;99.90;;;;;;5143810;28;20031;-61
2022/12/17 15:01:21;;;;;;;27.58;13.45;;;0.50;99.90;;;;;;5142968;28;20022;-61
2022/12/17 15:03:58;;;;;;;29.23;13.05;;;0.50;99.90;;;;;;5094764;28;20061;-61
2022/12/17 15:06:33;;;;;;;31.25;14.75;;;0.40;99.90;;;;;;5118213;28;20061;-61
2022/12/17 15:09:06;;;;;;;;;;;0.40;99.90;;;;;;5079871;28;20047;-61
2022/12/17 15:11:41;;;;;;;23.08;12.45;;;0.40;99.90;;;;;;5105570;28;19914;-62
2022/12/17 15:14:20;;;;;;;21.25;11.25;;;0.40;99.90;;;;;;5111961;28;20046;-61
2022/12/17 15:17:00;;;;;;;28.25;13.65;;;0.40;99.90;;;;;;5145658;28;20051;-65
2022/12/17 15:19:31;;;;;;;34.13;14.95;;;0.40;99.90;;;;;;5110811;28;20453;-63
2022/12/17 15:22:17;;;;;;;25.05;13.07;;;0.40;99.90;;;;;;5113790;28;20238;-63
2022/12/17 15:24:54;;;;;;;27.10;14.60;;;0.40;99.90;;;;;;5098656;28;20220;-61
2022/12/17 15:27:28;;;;;;;23.67;11.05;;;0.40;99.90;;;;;;5095860;28;20047;-62
2022/12/17 15:30:00;;;;;;;;;;;0.40;99.90;;;;;;5105647;28;20395;-62
2022/12/17 15:32:42;;;;;;;27.83;13.20;;;0.30;99.90;;;;;;5109417;28;20054;-62
2022/12/17 15:35:13;;;;;;;33.67;15.77;;;0.30;99.90;;;;;;5100849;28;20039;-62
2022/12/17 15:37:50;;;;;;;25.83;13.80;;;0.30;99.90;;;;;;5110343;28;20050;-63
2022/12/17 15:40:25;;;;;;;28.83;14.13;;;0.30;99.90;;;;;;5077125;28;20057;-62
2022/12/17 15:43:11;;;;;;;26.58;11.93;;;0.30;99.90;;;;;;5100622;29;20035;-62
2022/12/17 15:45:51;;;;;;;22.90;12.73;;;0.30;99.90;;;;;;5106561;28;20050;-61
2022/12/17 15:48:29;;;;;;;27.10;12.27;;;0.30;99.90;;;;;;5108021;28;20050;-61
2022/12/17 15:51:07;;;;;;;22.00;12.55;;;0.30;99.90;;;;;;5127802;28;20042;-61
2022/12/17 15:53:44;;;;;;;32.53;14.88;;;0.30;99.90;;;;;;5112926;28;20351;-64
2022/12/17 15:56:27;;;;;;;34.88;15.45;;;0.30;99.90;;;;;;5091856;28;20053;-61
2022/12/17 15:59:10;;;;;;;30.98;14.77;;;0.30;99.90;;;;;;5082717;28;20578;-61
2022/12/17 16:01:42;;;;;;;32.65;15.73;;;0.20;99.90;;;;;;5097453;28;20051;-63
2022/12/17 16:04:17;;;;;;;29.23;13.57;;;0.20;99.90;;;;;;5118934;28;20057;-62
2022/12/17 16:06:48;;;;;;;34.33;13.10;;;0.20;99.90;;;;;;5128796;28;20694;-60
2022/12/17 16:09:25;;;;;;;25.00;13.38;;;0.20;99.90;;;;;;5095234;28;20043;-61
2022/12/17 16:11:57;;;;;;;29.23;13.88;;;0.20;99.90;;;;;;5069739;28;20521;-61
2022/12/17 16:14:31;;;;;;;38.25;16.05;;;0.20;99.90;;;;;;5123165;28;20053;-59
2022/12/17 16:17:03;;;;;;;31.83;13.45;;;0.20;99.90;;;;;;5118314;28;20609;-61
2022/12/17 16:19:34;;;;;;;26.65;13.10;;;0.20;99.90;;;;;;5083021;28;20039;-61
2022/12/17 16:22:08;;;;;;;32.28;14.68;;;0.20;99.90;;;;;;5130677;28;20083;-63
2022/12/17 16:24:40;;;;;;;34.20;17.83;;;0.20;99.90;;;;;;5115955;28;20035;-60
2022/12/17 16:27:16;;;;;;;39.17;17.00;;;0.20;99.90;;;;;;5134256;28;20038;-60
2022/12/17 16:29:52;;;;;;;26.52;12.10;;;0.20;99.90;;;;;;5098710;28;20038;-62
2022/12/17 16:32:30;;;;;;;28.02;15.35;;;0.10;99.90;;;;;;5085217;28;20464;-60
2022/12/17 16:35:12;;;;;;;29.42;14.10;;;0.20;99.90;;;;;;5114851;28;20555;-61
2022/12/17 16:37:52;;;;;;;31.55;14.50;;;0.20;99.90;;;;;;5117280;28;20044;-61
2022/12/17 16:40:23;;;;;;;36.25;18.60;;;0.20;99.90;;;;;;5101661;28;20035;-62
2022/12/17 16:43:05;;;;;;;33.80;14.98;;;0.10;99.90;;;;;;5136807;28;20062;-62
2022/12/17 16:45:49;;;;;;;28.65;12.85;;;0.10;99.90;;;;;;5120616;28;20037;-61
2022/12/17 16:48:23;;;;;;;34.35;15.80;;;0.10;99.90;;;;;;5129862;28;20047;-62
2022/12/17 16:51:00;;;;;;;28.33;15.18;;;0.10;99.90;;;;;;5130023;28;20049;-61
2022/12/17 16:53:34;;;;;;;27.60;14.80;;;0.10;99.90;;;;;;5096049;28;20046;-61
2022/12/17 16:56:21;;;;;;;26.67;13.23;;;0.10;99.90;;;;;;5098543;28;20034;-59
2022/12/17 16:58:57;;;;;;;32.30;15.95;;;0.10;99.90;;;;;;5099289;28;20046;-60
2022/12/17 17:01:38;;;;;;;28.45;15.20;;;0.10;99.90;;;;;;5134127;28;20065;-61
2022/12/17 17:04:16;;;;;;;29.33;15.02;;;0.10;99.90;;;;;;5091885;28;20581;-60
2022/12/17 17:06:51;;;;;;;28.27;13.35;;;0.00;99.90;;;;;;5132376;28;20053;-61
2022/12/17 17:09:28;;;;;;;30.55;13.93;;;0.00;99.90;;;;;;5108290;28;20050;-60
2022/12/17 17:12:06;;;;;;;27.42;13.55;;;-0.10;99.90;;;;;;5108883;29;20051;-61
2022/12/17 17:14:43;;;;;;;38.10;15.88;;;-0.20;99.90;;;;;;5108717;29;20459;-62
2022/12/17 17:17:20;;;;;;;29.45;15.50;;;-0.20;99.90;;;;;;5150012;28;20076;-62
2022/12/17 17:19:52;;;;;;;38.33;18.25;;;-0.30;99.90;;;;;;5134340;28;20276;-61
2022/12/17 17:22:24;;;;;;;30.50;15.48;;;-0.30;99.90;;;;;;5104169;28;20070;-61
2022/12/17 17:24:55;;;;;;;32.72;15.45;;;-0.30;99.90;;;;;;5096998;28;20492;-61
2022/12/17 17:27:33;;;;;;;35.47;15.93;;;-0.40;99.90;;;;;;5117984;28;20047;-61
2022/12/17 17:30:08;;;;;;;36.83;17.02;;;-0.30;99.90;;;;;;5080506;28;20051;-61
2022/12/17 17:32:40;;;;;;;27.10;14.60;;;-0.40;99.90;;;;;;5095735;28;20061;-61
2022/12/17 17:35:15;;;;;;;41.17;16.70;;;-0.40;99.90;;;;;;5113606;28;20041;-61
2022/12/17 17:37:49;;;;;;;31.65;15.02;;;-0.30;99.90;;;;;;5128851;28;20342;-62
2022/12/17 17:40:20;;;;;;;;;;;-0.30;99.90;;;;;;5120262;28;20255;-62
2022/12/17 17:42:59;;;;;;;27.98;14.60;;;-0.30;99.90;;;;;;5117719;28;19922;-62
2022/12/17 17:45:35;;;;;;;34.83;15.57;;;-0.30;99.90;;;;;;5110093;28;20516;-62
2022/12/17 17:48:06;;;;;;;32.50;15.20;;;-0.30;99.90;;;;;;5124378;28;20042;-60
2022/12/17 17:50:43;;;;;;;37.85;17.30;;;-0.30;99.90;;;;;;5079923;28;20043;-61
2022/12/17 17:53:17;;;;;;;35.47;16.65;;;-0.30;99.90;;;;;;5096475;28;20319;-61
2022/12/17 17:55:49;;;;;;;;;;;-0.30;99.90;;;;;;5128401;28;20562;-60
2022/12/17 17:58:23;;;;;;;27.02;14.65;;;-0.20;99.90;;;;;;5142519;28;19921;-63
2022/12/17 18:00:57;;;;;;;42.58;18.85;;;-0.20;99.90;;;;;;5124801;28;20050;-61
2022/12/17 18:03:36;;;;;;;31.77;16.15;;;-0.20;99.90;;;;;;5094213;28;20039;-61
2022/12/17 18:06:11;;;;;;;39.25;17.30;;;-0.20;99.90;;;;;;5147786;28;20251;-61
2022/12/17 18:08:44;;;;;;;26.50;13.20;;;-0.10;99.90;;;;;;5077487;28;20063;-62
2022/12/17 18:11:22;;;;;;;27.77;14.57;;;-0.10;99.90;;;;;;5099836;28;20382;-62
2022/12/17 18:13:58;;;;;;;26.92;13.10;;;-0.10;99.90;;;;;;5122364;28;20618;-61
2022/12/17 18:16:36;;;;;;;28.77;13.20;;;-0.10;99.90;;;;;;5119614;28;20062;-61
2022/12/17 18:19:20;;;;;;;28.02;13.48;;;-0.10;99.90;;;;;;5117478;28;20046;-61
2022/12/17 18:21:52;;;;;;;;;;;-0.20;99.90;;;;;;5103295;28;20027;-60
2022/12/17 18:24:23;;;;;;;24.55;13.32;;;-0.20;99.90;;;;;;5134664;28;20250;-60
2022/12/17 18:26:55;;;;;;;24.70;12.02;;;-0.20;99.90;;;;;;5102178;28;20034;-60
2022/12/17 18:29:31;;;;;;;25.73;12.68;;;-0.20;99.90;;;;;;5105085;28;20035;-58
2022/12/17 18:32:07;;;;;;;24.67;10.52;;;-0.20;99.90;;;;;;5134573;28;20038;-60
2022/12/17 18:34:39;;;;;;;17.20;11.10;;;-0.20;99.90;;;;;;5135070;28;20034;-61
2022/12/17 18:37:17;;;;;;;22.42;10.65;;;-0.30;99.90;;;;;;5134153;28;20353;-61
2022/12/17 18:39:51;;;;;;;22.63;12.25;;;-0.20;99.90;;;;;;5118822;28;20033;-60
2022/12/17 18:45:18;;;;;;;26.77;9.98;;;-0.20;99.90;;;;;;5110535;28;20321;-60
2022/12/17 18:47:49;;;;;;;19.52;9.38;;;-0.20;99.90;;;;;;5106298;28;20037;-59
2022/12/17 18:50:23;;;;;;;20.08;9.73;;;-0.20;99.90;;;;;;5110806;28;20023;-59
2022/12/17 18:52:57;;;;;;;18.23;10.20;;;-0.30;99.90;;;;;;5121427;28;20022;-58
2022/12/17 18:55:31;;;;;;;17.77;9.20;;;-0.30;99.90;;;;;;5116238;28;20159;-60
2022/12/17 18:58:03;;;;;;;20.70;10.38;;;-0.30;99.90;;;;;;5123523;28;20064;-58
2022/12/17 19:00:36;;;;;;;19.08;9.30;;;-0.30;99.90;;;;;;5134738;28;20042;-60
2022/12/17 19:03:08;;;;;;;19.57;9.27;;;-0.30;99.90;;;;;;5107772;28;20039;-60
2022/12/17 19:05:42;;;;;;;17.35;9.13;;;-0.30;99.90;;;;;;5120106;28;20049;-59
2022/12/17 19:08:15;;;;;;;14.70;8.40;;;-0.30;99.90;;;;;;5104637;28;20179;-59
2022/12/17 19:10:56;;;;;;;19.38;10.38;;;-0.30;99.90;;;;;;5107548;28;20043;-59
2022/12/17 19:13:29;;;;;;;27.67;10.05;;;-0.30;99.90;;;;;;5105286;28;20054;-57
2022/12/17 19:16:20;;;;;;;15.73;7.90;;;-0.30;99.90;;;;;;5133546;28;20106;-60
2022/12/17 19:18:58;;;;;;;17.98;8.57;;;-0.30;99.90;;;;;;5114084;28;20039;-58
2022/12/17 19:21:34;;;;;;;18.92;9.52;;;-0.30;99.90;;;;;;5130675;28;20034;-59
2022/12/17 19:24:17;;;;;;;15.73;8.43;;;-0.30;99.90;;;;;;5133007;28;20122;-58
2022/12/17 19:26:54;;;;;;;15.43;7.85;;;-0.30;99.90;;;;;;5118239;28;20039;-59
2022/12/17 19:29:25;;;;;;;14.98;7.55;;;-0.30;99.90;;;;;;5112651;28;20035;-58
2022/12/17 19:31:57;;;;;;;19.05;8.55;;;-0.30;99.90;;;;;;5104702;28;20015;-58
2022/12/17 19:34:28;;;;;;;13.18;7.30;;;-0.30;99.90;;;;;;5122655;28;20275;-58
2022/12/17 19:37:00;;;;;;;17.45;8.85;;;-0.30;99.90;;;;;;5135624;28;20046;-59
2022/12/17 19:39:34;;;;;;;16.95;7.80;;;-0.30;99.90;;;;;;5109677;28;20043;-59
2022/12/17 19:42:23;;;;;;;14.30;8.70;;;-0.30;99.90;;;;;;5097127;28;20042;-59
2022/12/17 19:44:55;;;;;;;14.85;7.70;;;-0.30;99.90;;;;;;5085229;28;20398;-58
2022/12/17 19:47:31;;;;;;;13.88;8.25;;;-0.30;99.90;;;;;;5087756;28;20323;-59
2022/12/17 19:50:06;;;;;;;12.80;8.52;;;-0.30;99.90;;;;;;5113250;28;20532;-60
2022/12/17 19:52:40;;;;;;;18.30;8.55;;;-0.30;99.90;;;;;;5128594;28;20046;-60
2022/12/17 19:55:12;;;;;;;16.27;7.95;;;-0.30;99.90;;;;;;5097567;28;20455;-59
2022/12/17 19:57:43;;;;;;;17.23;7.93;;;-0.40;99.90;;;;;;5110462;28;20046;-59
2022/12/17 20:00:26;;;;;;;13.20;8.38;;;-0.30;99.90;;;;;;5118082;28;20038;-59
2022/12/17 20:03:00;;;;;;;9.68;6.80;;;-0.30;99.90;;;;;;5121995;28;20042;-59
2022/12/17 20:05:32;;;;;;;14.13;8.05;;;-0.30;99.90;;;;;;5131158;28;20042;-60
2022/12/17 20:08:04;;;;;;;15.45;7.97;;;-0.30;99.90;;;;;;5132888;28;20156;-59
2022/12/17 20:10:39;;;;;;;14.45;8.00;;;-0.30;99.90;;;;;;5082715;28;20250;-59
2022/12/17 20:13:17;;;;;;;12.90;7.50;;;-0.20;99.90;;;;;;5129323;28;20131;-58
2022/12/17 20:16:04;;;;;;;22.05;8.60;;;-0.20;99.90;;;;;;5115331;28;20443;-59
2022/12/17 20:18:46;;;;;;;17.58;8.23;;;-0.20;99.90;;;;;;5123191;28;20366;-58
2022/12/17 20:21:24;;;;;;;14.18;7.50;;;-0.20;99.90;;;;;;5114251;28;20039;-59
2022/12/17 20:23:56;;;;;;;16.10;8.25;;;-0.20;99.90;;;;;;5109919;29;20174;-59
2022/12/17 20:26:35;;;;;;;17.38;8.95;;;-0.20;99.90;;;;;;5124465;28;20035;-59
2022/12/17 20:29:09;;;;;;;18.75;8.63;;;-0.20;99.90;;;;;;5114733;28;20027;-59
2022/12/17 20:31:42;;;;;;;18.33;9.18;;;-0.20;99.90;;;;;;5128447;28;20304;-59
2022/12/17 20:34:25;;;;;;;22.60;10.85;;;-0.20;99.90;;;;;;5129794;28;20307;-59
2022/12/17 20:37:02;;;;;;;20.53;8.77;;;-0.20;99.90;;;;;;5097188;28;20038;-58
2022/12/17 20:39:36;;;;;;;18.42;9.48;;;-0.10;99.90;;;;;;5142548;28;20034;-59
2022/12/17 20:42:13;;;;;;;18.73;10.50;;;-0.20;99.90;;;;;;5111431;28;20033;-58
2022/12/17 20:44:46;;;;;;;19.80;10.13;;;-0.20;99.90;;;;;;5113540;28;20298;-58
2022/12/17 20:47:23;;;;;;;20.30;9.77;;;-0.30;99.90;;;;;;5113586;28;20394;-59
2022/12/17 20:49:57;;;;;;;23.27;10.93;;;-0.30;99.90;;;;;;5125912;28;20039;-58
2022/12/17 20:52:34;;;;;;;19.17;9.75;;;-0.30;99.90;;;;;;5106961;28;20038;-59
2022/12/17 20:55:08;;;;;;;20.95;11.40;;;-0.30;99.90;;;;;;5144254;28;20047;-58
2022/12/17 20:57:48;;;;;;;20.80;10.23;;;-0.20;99.90;;;;;;5111482;28;20052;-58
2022/12/17 21:00:22;;;;;;;18.58;10.60;;;-0.20;99.90;;;;;;5110270;28;20039;-60
2022/12/17 21:02:54;;;;;;;;;;;-0.30;99.90;;;;;;5113561;28;20049;-58
2022/12/17 21:05:26;;;;;;;19.83;9.40;;;-0.30;99.90;;;;;;5112813;28;20122;-59
2022/12/17 21:08:05;;;;;;;25.98;11.63;;;-0.30;99.90;;;;;;5131992;28;20054;-60
2022/12/17 21:10:40;;;;;;;29.15;13.00;;;-0.30;99.90;;;;;;5097324;28;20043;-58
2022/12/17 21:13:29;;;;;;;21.48;12.27;;;-0.30;99.90;;;;;;5097815;28;20501;-58
2022/12/17 21:16:15;;;;;;;27.13;12.48;;;-0.30;99.90;;;;;;5114687;28;20046;-60
2022/12/17 21:18:54;;;;;;;21.58;10.07;;;-0.30;99.90;;;;;;5089421;28;20046;-59
2022/12/17 21:21:31;;;;;;;19.45;10.52;;;-0.20;99.90;;;;;;5112214;28;20053;-59
2022/12/17 21:24:04;;;;;;;21.63;10.48;;;-0.30;99.90;;;;;;5111079;28;20026;-60
2022/12/17 21:26:41;;;;;;;22.77;11.57;;;-0.30;99.90;;;;;;5112069;28;20031;-59
2022/12/17 21:29:17;;;;;;;27.38;11.57;;;-0.30;99.90;;;;;;5109475;28;20235;-59
2022/12/17 21:31:55;;;;;;;24.00;11.18;;;-0.30;99.90;;;;;;5110507;28;20126;-59
2022/12/17 21:34:31;;;;;;;22.95;11.02;;;-0.30;99.90;;;;;;5145356;28;20035;-58
2022/12/17 21:37:04;;;;;;;23.20;12.45;;;-0.30;99.90;;;;;;5113563;28;20044;-58
2022/12/17 21:39:42;;;;;;;23.45;11.93;;;-0.30;99.90;;;;;;5129631;28;20046;-58
2022/12/17 21:45:12;;;;;;;23.52;11.45;;;-0.30;99.90;;;;;;5114161;28;20230;-59
2022/12/17 21:47:44;;;;;;;23.88;11.82;;;-0.30;99.90;;;;;;5145330;28;20516;-58
2022/12/17 21:50:24;;;;;;;18.88;11.13;;;-0.30;99.90;;;;;;5111588;28;20035;-60
2022/12/17 21:53:04;;;;;;;18.00;10.73;;;-0.30;99.90;;;;;;5109504;28;20042;-57
2022/12/17 21:55:42;;;;;;;25.00;11.32;;;-0.30;99.90;;;;;;5111944;28;20051;-57
2022/12/17 21:58:18;;;;;;;19.60;10.50;;;-0.30;99.90;;;;;;5127734;28;20050;-61
2022/12/17 22:00:49;;;;;;;17.88;10.30;;;-0.30;99.90;;;;;;5141227;28;20242;-58
2022/12/17 22:03:20;;;;;;;20.58;9.75;;;-0.30;99.90;;;;;;5126209;28;20046;-59
2022/12/17 22:05:58;;;;;;;22.58;10.63;;;-0.20;99.90;;;;;;5113799;28;20312;-58
2022/12/17 22:08:34;;;;;;;16.00;10.10;;;-0.30;99.90;;;;;;5079993;28;20673;-57
2022/12/17 22:11:26;;;;;;;16.20;9.55;;;-0.30;99.90;;;;;;5102433;28;20062;-59
2022/12/17 22:14:10;;;;;;;22.05;9.77;;;-0.20;99.90;;;;;;5094757;28;20057;-59
2022/12/17 22:16:49;;;;;;;11.25;7.65;;;-0.20;99.90;;;;;;5120259;28;20045;-58
2022/12/17 22:19:26;;;;;;;16.90;8.70;;;-0.20;99.90;;;;;;5132864;28;20038;-60
2022/12/17 22:21:57;;;;;;;15.88;8.75;;;-0.30;99.90;;;;;;5111522;28;20027;-57
2022/12/17 22:24:31;;;;;;;20.55;9.80;;;-0.30;99.90;;;;;;5128586;28;20049;-59
2022/12/17 22:27:14;;;;;;;16.77;9.18;;;-0.30;99.90;;;;;;5140465;28;20043;-60
2022/12/17 22:32:58;;;;;;;15.00;8.05;;;-0.40;99.90;;;;;;5129776;28;20049;-58
2022/12/17 22:35:45;;;;;;;11.15;6.57;;;-0.40;99.90;;;;;;5102180;28;20039;-59
2022/12/17 22:38:19;;;;;;;14.63;7.72;;;-0.40;99.90;;;;;;5108779;28;20328;-59
2022/12/17 22:43:28;;;;;;;13.80;8.18;;;-0.40;99.90;;;;;;5111931;28;20034;-58
2022/12/17 22:44:04;;;;;;;17.02;8.52;;;-0.50;99.90;;;;;;5115101;28;20061;-59
2022/12/17 22:46:35;;;;;;;18.35;8.50;;;-0.50;99.90;;;;;;5136347;28;20046;-57
2022/12/17 22:49:16;;;;;;;18.75;8.07;;;-0.50;99.90;;;;;;5122198;28;20289;-58
2022/12/17 22:51:57;;;;;;;16.77;7.50;;;-0.50;99.90;;;;;;5093877;28;20042;-58
2022/12/17 22:54:32;;;;;;;18.73;9.67;;;-0.60;99.90;;;;;;5128803;28;20044;-58
2022/12/17 22:57:03;;;;;;;15.23;7.75;;;-0.60;99.90;;;;;;5112762;28;20468;-58
2022/12/17 22:59:38;;;;;;;16.48;8.45;;;-0.60;99.90;;;;;;5131496;28;20038;-61
2022/12/17 23:02:14;;;;;;;14.07;6.93;;;-0.60;99.90;;;;;;5123020;28;20050;-57
2022/12/17 23:04:48;;;;;;;14.60;7.50;;;-0.50;99.90;;;;;;5120095;28;20053;-58
2022/12/17 23:07:22;;;;;;;13.25;7.75;;;-0.50;99.90;;;;;;5115242;28;20039;-58
2022/12/17 23:09:55;;;;;;;12.25;7.93;;;-0.50;99.90;;;;;;5114473;28;20038;-58
2022/12/17 23:15:42;;;;;;;12.82;7.10;;;-0.50;99.90;;;;;;5116523;28;20042;-58
2022/12/17 23:18:25;;;;;;;12.75;7.47;;;-0.50;99.90;;;;;;5114018;28;20034;-60
2022/12/17 23:21:19;;;;;;;15.50;7.15;;;-0.50;99.90;;;;;;5099975;28;20031;-58
2022/12/17 23:23:56;;;;;;;16.92;7.82;;;-0.50;99.90;;;;;;5095375;29;20023;-58
2022/12/17 23:26:43;;;;;;;15.93;8.98;;;-0.50;99.90;;;;;;5080387;29;20051;-59
2022/12/17 23:29:15;;;;;;;15.23;8.30;;;-0.50;99.90;;;;;;5105078;28;20038;-58
2022/12/17 23:31:50;;;;;;;15.05;7.65;;;-0.50;99.90;;;;;;5089229;28;20051;-61
2022/12/17 23:34:21;;;;;;;15.65;8.02;;;-0.50;99.90;;;;;;5154830;28;20064;-59
2022/12/17 23:36:55;;;;;;;16.55;8.18;;;-0.50;99.90;;;;;;5133921;28;20318;-59
2022/12/17 23:39:29;;;;;;;14.82;8.13;;;-0.50;99.90;;;;;;5114175;28;20035;-59
2022/12/17 23:42:08;;;;;;;14.13;6.88;;;-0.50;99.90;;;;;;5114969;28;20042;-60
2022/12/17 23:44:45;;;;;;;15.75;7.57;;;-0.50;99.90;;;;;;5098544;28;20047;-58
2022/12/17 23:47:24;;;;;;;16.80;8.30;;;-0.40;99.90;;;;;;5127268;28;20037;-58
2022/12/17 23:49:58;;;;;;;16.30;8.00;;;-0.40;99.90;;;;;;5123925;28;20038;-58
2022/12/17 23:52:38;;;;;;;15.95;8.75;;;-0.40;99.90;;;;;;5112257;28;20050;-58
2022/12/17 23:55:13;;;;;;;11.77;6.50;;;-0.40;99.90;;;;;;5096352;28;20197;-57
2022/12/17 23:57:46;;;;;;;13.18;7.97;;;-0.40;99.90;;;;;;5096822;28;20051;-58
